Time;durP1;ratioP1;P1;durP2;ratioP2;P2;SDS_P1;SDS_P2;PMS_P1;PMS_P2;Temp;Humidity;BMP_temperature;BMP_pressure;BME280_temperature;BME280_humidity;BME280_pressure;Samples;Min_cycle;Max_cycle;Signal;HPM_P1;HPM_P2
2023/06/07 00:02:02;;;;;;;3.87;3.50;;;;;;;;;;5069020;28;20244;-72
2023/06/07 00:04:30;;;;;;;3.60;3.30;;;;;;;;;;5053266;28;20259;-72
2023/06/07 00:07:00;;;;;;;3.97;3.63;;;;;;;;;;5068501;28;20208;-72
2023/06/07 00:09:25;;;;;;;8.03;4.37;;;;;;;;;;5052769;28;20172;-72
2023/06/07 00:11:51;;;;;;;5.47;3.97;;;;;;;;;;5056710;28;20177;-72
2023/06/07 00:14:16;;;;;;;4.30;4.00;;;;;;;;;;5048554;28;20180;-72
2023/06/07 00:16:44;;;;;;;5.50;3.60;;;;;;;;;;5073327;28;20238;-72
2023/06/07 00:19:11;;;;;;;5.57;4.10;;;;;;;;;;5069068;28;20185;-72
2023/06/07 00:21:38;;;;;;;4.67;4.07;;;;;;;;;;5052299;28;20168;-72
2023/06/07 00:24:03;;;;;;;4.97;4.33;;;;;;;;;;5068292;28;20179;-72
2023/06/07 00:26:28;;;;;;;4.27;3.57;;;;;;;;;;5052545;28;20180;-72
2023/06/07 00:28:53;;;;;;;3.57;3.30;;;;;;;;;;5067362;28;20172;-72
2023/06/07 00:31:19;;;;;;;3.80;3.50;;;;;;;;;;5070334;28;20179;-73
2023/06/07 00:33:44;;;;;;;4.47;3.87;;;;;;;;;;5070706;28;20266;-72
2023/06/07 00:36:09;;;;;;;4.73;3.90;;;;;;;;;;5069830;28;20314;-72
2023/06/07 00:38:35;;;;;;;4.17;3.87;;;;;;;;;;5075022;28;20245;-72
2023/06/07 00:41:00;;;;;;;4.90;4.30;;;;;;;;;;5067479;28;20276;-72
2023/06/07 00:43:25;;;;;;;4.00;3.60;;;;;;;;;;5073565;28;20197;-72
2023/06/07 00:45:50;;;;;;;4.43;4.03;;;;;;;;;;5071688;28;20181;-72
2023/06/07 00:48:16;;;;;;;4.60;4.10;;;;;;;;;;5073175;28;20296;-72
2023/06/07 00:50:41;;;;;;;5.00;4.10;;;;;;;;;;5049035;28;20177;-72
2023/06/07 00:53:07;;;;;;;3.80;3.50;;;;;;;;;;5048377;28;20201;-72
2023/06/07 00:55:32;;;;;;;4.43;4.03;;;;;;;;;;5053040;28;20176;-72
2023/06/07 00:57:58;;;;;;;4.50;3.60;;;;;;;;;;5072314;28;20205;-72
2023/06/07 01:00:23;;;;;;;5.50;4.13;;;;;;;;;;5068644;28;20183;-72
2023/06/07 01:02:49;;;;;;;4.83;4.33;;;;;;;;;;5054165;28;20269;-72
2023/06/07 01:05:15;;;;;;;4.43;3.67;;;;;;;;;;5063689;28;20236;-72
2023/06/07 01:07:43;;;;;;;4.43;3.70;;;;;;;;;;5056969;28;20219;-72
2023/06/07 01:10:08;;;;;;;4.53;4.03;;;;;;;;;;5063350;28;20257;-72
2023/06/07 01:12:34;;;;;;;4.53;3.43;;;;;;;;;;5051580;28;20285;-72
2023/06/07 01:15:00;;;;;;;4.50;4.00;;;;;;;;;;5065230;28;20200;-72
2023/06/07 01:17:26;;;;;;;4.57;4.17;;;;;;;;;;5048815;28;20281;-73
2023/06/07 01:19:53;;;;;;;4.83;4.43;;;;;;;;;;5069883;28;20178;-72
2023/06/07 01:22:19;;;;;;;5.20;3.63;;;;;;;;;;5069302;28;20175;-72
2023/06/07 01:24:47;;;;;;;4.43;3.83;;;;;;;;;;5066025;28;20228;-72
2023/06/07 01:27:12;;;;;;;4.43;4.00;;;;;;;;;;5069170;28;20224;-72
2023/06/07 01:29:38;;;;;;;4.20;3.90;;;;;;;;;;5066379;28;20170;-72
2023/06/07 01:32:05;;;;;;;4.40;4.00;;;;;;;;;;5048785;28;20201;-72
2023/06/07 01:34:31;;;;;;;3.93;3.63;;;;;;;;;;5077601;28;20180;-72
2023/06/07 01:36:56;;;;;;;4.83;4.33;;;;;;;;;;5076151;28;20189;-72
2023/06/07 01:39:22;;;;;;;5.67;4.97;;;;;;;;;;5073944;28;20194;-72
2023/06/07 01:41:49;;;;;;;4.63;4.23;;;;;;;;;;5052435;28;20529;-72
2023/06/07 01:44:14;;;;;;;4.83;4.33;;;;;;;;;;5072490;28;20284;-72
2023/06/07 01:46:41;;;;;;;6.10;4.47;;;;;;;;;;5071592;28;20174;-72
2023/06/07 01:49:06;;;;;;;6.00;4.00;;;;;;;;;;5051817;28;20239;-72
2023/06/07 01:51:32;;;;;;;4.80;4.40;;;;;;;;;;5068177;28;20549;-72
2023/06/07 01:53:57;;;;;;;5.00;4.53;;;;;;;;;;5053747;28;20243;-72
2023/06/07 01:56:28;;;;;;;4.37;4.03;;;;;;;;;;5055071;28;20264;-73
2023/06/07 01:59:01;;;;;;;4.60;4.20;;;;;;;;;;5067116;28;20170;-72
2023/06/07 02:01:47;;;;;;;4.40;4.00;;;;;;;;;;5053109;28;20177;-72
2023/06/07 02:04:16;;;;;;;4.77;4.37;;;;;;;;;;5044807;28;20223;-72
2023/06/07 02:06:43;;;;;;;6.40;4.30;;;;;;;;;;5047362;28;20212;-72
2023/06/07 02:09:11;;;;;;;4.10;3.80;;;;;;;;;;5029170;28;20189;-73
2023/06/07 02:11:40;;;;;;;4.33;3.93;;;;;;;;;;5049234;28;20179;-73
2023/06/07 02:14:06;;;;;;;4.97;4.47;;;;;;;;;;5049627;28;20183;-73
2023/06/07 02:16:35;;;;;;;4.20;3.80;;;;;;;;;;5027516;28;20177;-72
2023/06/07 02:19:12;;;;;;;4.03;3.60;;;;;;;;;;5049238;28;20182;-72
2023/06/07 02:21:37;;;;;;;4.07;3.60;;;;;;;;;;5042670;28;20177;-72
2023/06/07 02:24:06;;;;;;;4.10;3.80;;;;;;;;;;5030128;28;20187;-72
2023/06/07 02:26:32;;;;;;;5.40;3.57;;;;;;;;;;5028777;28;20179;-72
2023/06/07 02:28:57;;;;;;;3.93;3.63;;;;;;;;;;5028609;28;20185;-72
2023/06/07 02:31:23;;;;;;;3.83;3.40;;;;;;;;;;5032285;28;20185;-72
2023/06/07 02:33:48;;;;;;;4.77;4.47;;;;;;;;;;5052922;28;20185;-72
2023/06/07 02:36:13;;;;;;;4.20;3.90;;;;;;;;;;5049589;28;20175;-72
2023/06/07 02:38:39;;;;;;;5.97;3.90;;;;;;;;;;5033178;28;20250;-72
2023/06/07 02:41:04;;;;;;;4.90;4.50;;;;;;;;;;5045236;28;20180;-72
2023/06/07 02:43:29;;;;;;;4.20;3.80;;;;;;;;;;5037206;28;20215;-72
2023/06/07 02:45:54;;;;;;;4.50;4.10;;;;;;;;;;5038752;28;20200;-72
2023/06/07 02:48:20;;;;;;;5.17;4.67;;;;;;;;;;5029435;28;20206;-72
2023/06/07 02:50:46;;;;;;;5.97;5.37;;;;;;;;;;5027433;28;20196;-73
2023/06/07 02:53:11;;;;;;;4.50;4.10;;;;;;;;;;5034179;28;20179;-72
2023/06/07 02:55:36;;;;;;;5.40;4.53;;;;;;;;;;5029948;28;20178;-72
2023/06/07 02:58:01;;;;;;;5.70;4.73;;;;;;;;;;5031032;28;20201;-72
2023/06/07 03:00:27;;;;;;;5.07;4.57;;;;;;;;;;5028820;28;20185;-72
2023/06/07 03:02:52;;;;;;;5.53;4.97;;;;;;;;;;5050418;28;20244;-72
2023/06/07 03:05:18;;;;;;;7.43;4.70;;;;;;;;;;5049391;28;20221;-75
2023/06/07 03:07:43;;;;;;;5.90;5.33;;;;;;;;;;5050350;28;20201;-74
2023/06/07 03:10:08;;;;;;;5.50;4.40;;;;;;;;;;5067888;28;20174;-75
2023/06/07 03:12:33;;;;;;;7.97;5.53;;;;;;;;;;5067418;28;20174;-75
2023/06/07 03:14:59;;;;;;;4.77;4.37;;;;;;;;;;5075199;28;20191;-75
2023/06/07 03:17:24;;;;;;;4.80;4.40;;;;;;;;;;5069997;28;20185;-75
2023/06/07 03:19:49;;;;;;;4.70;4.30;;;;;;;;;;5072939;28;20283;-75
2023/06/07 03:22:15;;;;;;;4.97;4.57;;;;;;;;;;5051325;28;20188;-74
2023/06/07 03:24:40;;;;;;;5.33;4.83;;;;;;;;;;5070838;28;20175;-75
2023/06/07 03:27:08;;;;;;;5.10;4.70;;;;;;;;;;5047678;28;20274;-74
2023/06/07 03:29:33;;;;;;;4.93;4.43;;;;;;;;;;5072741;28;20176;-74
2023/06/07 03:31:59;;;;;;;5.50;4.97;;;;;;;;;;5055182;28;20180;-74
2023/06/07 03:34:26;;;;;;;6.10;5.60;;;;;;;;;;5073316;28;20172;-75
2023/06/07 03:36:51;;;;;;;7.50;5.47;;;;;;;;;;5064961;28;20175;-74
2023/06/07 03:39:17;;;;;;;5.37;4.93;;;;;;;;;;5068034;28;20188;-74
2023/06/07 03:41:42;;;;;;;5.47;4.80;;;;;;;;;;5073030;28;20175;-74
2023/06/07 03:44:07;;;;;;;7.97;5.70;;;;;;;;;;5074759;28;20187;-74
2023/06/07 03:46:32;;;;;;;5.53;5.03;;;;;;;;;;5076164;28;20214;-74
2023/06/07 03:48:57;;;;;;;6.00;5.50;;;;;;;;;;5056897;28;20198;-74
2023/06/07 03:51:23;;;;;;;5.20;4.80;;;;;;;;;;5053280;28;20237;-74
2023/06/07 03:53:48;;;;;;;6.33;5.47;;;;;;;;;;5051475;28;20270;-75
2023/06/07 03:56:14;;;;;;;5.77;5.20;;;;;;;;;;5078484;28;20189;-74
2023/06/07 03:58:39;;;;;;;5.03;4.60;;;;;;;;;;5070661;28;20180;-75
2023/06/07 04:01:04;;;;;;;5.30;4.80;;;;;;;;;;5071429;28;20264;-75
2023/06/07 04:03:30;;;;;;;4.97;4.53;;;;;;;;;;5074486;28;20188;-74
2023/06/07 04:05:55;;;;;;;5.40;5.00;;;;;;;;;;5073396;28;20277;-74
2023/06/07 04:08:20;;;;;;;5.57;5.07;;;;;;;;;;5073806;28;20289;-74
2023/06/07 04:10:46;;;;;;;5.70;5.20;;;;;;;;;;5071518;28;20265;-74
2023/06/07 04:13:11;;;;;;;5.27;4.87;;;;;;;;;;5073346;28;20179;-75
2023/06/07 04:15:36;;;;;;;5.63;5.00;;;;;;;;;;5053240;28;20179;-74
2023/06/07 04:18:01;;;;;;;5.67;5.17;;;;;;;;;;5072208;28;20294;-75
2023/06/07 04:20:27;;;;;;;5.30;4.83;;;;;;;;;;5052799;28;20184;-74
2023/06/07 04:22:52;;;;;;;5.30;4.80;;;;;;;;;;5054172;28;20226;-75
2023/06/07 04:25:21;;;;;;;7.17;5.07;;;;;;;;;;5069696;28;20189;-74
2023/06/07 04:27:48;;;;;;;5.63;4.93;;;;;;;;;;5054674;28;20195;-74
2023/06/07 04:30:15;;;;;;;5.97;5.33;;;;;;;;;;5053498;28;20183;-75
2023/06/07 04:32:40;;;;;;;6.57;5.00;;;;;;;;;;5065953;28;20176;-74
2023/06/07 04:35:06;;;;;;;5.77;5.23;;;;;;;;;;5053759;28;20183;-74
2023/06/07 04:37:31;;;;;;;5.73;5.20;;;;;;;;;;5072492;28;20191;-75
2023/06/07 04:39:57;;;;;;;5.37;4.90;;;;;;;;;;5055126;28;20261;-74
2023/06/07 04:42:23;;;;;;;5.50;5.00;;;;;;;;;;5076832;28;20183;-74
2023/06/07 04:44:50;;;;;;;5.27;4.73;;;;;;;;;;5063457;28;20182;-74
2023/06/07 04:47:17;;;;;;;5.37;4.93;;;;;;;;;;5070108;28;20207;-74
2023/06/07 04:49:42;;;;;;;7.90;4.93;;;;;;;;;;5055013;28;20178;-74
2023/06/07 04:52:07;;;;;;;5.70;5.13;;;;;;;;;;5051321;28;20192;-74
2023/06/07 04:54:36;;;;;;;6.60;5.37;;;;;;;;;;5051598;28;20182;-74
2023/06/07 04:57:01;;;;;;;5.50;4.80;;;;;;;;;;5047454;28;20215;-74
2023/06/07 04:59:29;;;;;;;5.13;4.73;;;;;;;;;;5055268;28;20185;-75
2023/06/07 05:01:54;;;;;;;5.13;4.23;;;;;;;;;;5068012;28;20276;-75
2023/06/07 05:04:21;;;;;;;5.87;5.37;;;;;;;;;;5054751;28;20351;-75
2023/06/07 05:06:46;;;;;;;5.67;4.50;;;;;;;;;;5042840;28;20209;-75
2023/06/07 05:09:11;;;;;;;5.23;4.83;;;;;;;;;;5045623;28;20175;-75
2023/06/07 05:11:36;;;;;;;5.17;4.47;;;;;;;;;;5030366;28;20235;-74
2023/06/07 05:14:01;;;;;;;7.63;4.63;;;;;;;;;;5028905;28;20189;-74
2023/06/07 05:16:27;;;;;;;11.23;5.13;;;;;;;;;;5032946;28;20217;-74
2023/06/07 05:18:53;;;;;;;5.30;4.27;;;;;;;;;;5051398;28;20188;-74
2023/06/07 05:21:18;;;;;;;11.17;5.07;;;;;;;;;;5050354;28;20178;-74
2023/06/07 05:23:44;;;;;;;15.23;4.73;;;;;;;;;;5029726;28;20189;-74
2023/06/07 05:26:09;;;;;;;17.97;5.33;;;;;;;;;;5042475;28;20182;-74
2023/06/07 05:28:35;;;;;;;12.43;4.10;;;;;;;;;;5047877;28;20234;-75
2023/06/07 05:31:00;;;;;;;15.47;4.67;;;;;;;;;;5048847;28;20209;-74
2023/06/07 05:33:27;;;;;;;11.33;3.90;;;;;;;;;;5030946;28;20264;-72
2023/06/07 05:35:53;;;;;;;12.90;3.83;;;;;;;;;;5041930;28;20456;-72
2023/06/07 05:38:18;;;;;;;7.40;3.47;;;;;;;;;;5031543;28;20269;-72
2023/06/07 05:40:43;;;;;;;3.37;3.07;;;;;;;;;;5027496;28;20270;-72
2023/06/07 05:43:08;;;;;;;3.70;2.93;;;;;;;;;;5035450;28;20210;-72
2023/06/07 05:45:33;;;;;;;5.43;3.00;;;;;;;;;;5028914;28;20186;-72
2023/06/07 05:47:58;;;;;;;3.73;3.30;;;;;;;;;;5052411;28;20198;-72
2023/06/07 05:50:24;;;;;;;4.30;3.20;;;;;;;;;;5046724;28;20181;-72
2023/06/07 05:52:59;;;;;;;10.43;3.03;;;;;;;;;;5042372;28;20276;-72
2023/06/07 05:55:25;;;;;;;3.00;2.70;;;;;;;;;;5044167;28;20254;-72
2023/06/07 05:57:51;;;;;;;3.77;3.43;;;;;;;;;;5045879;28;20215;-72
2023/06/07 06:00:16;;;;;;;4.07;2.90;;;;;;;;;;5048999;28;20304;-72
2023/06/07 06:02:42;;;;;;;2.90;2.70;;;;;;;;;;5028655;28;20180;-72
2023/06/07 06:05:08;;;;;;;3.37;2.90;;;;;;;;;;5034183;28;20227;-72
2023/06/07 06:07:33;;;;;;;3.23;2.70;;;;;;;;;;5051535;28;20194;-72
2023/06/07 06:09:58;;;;;;;2.90;2.60;;;;;;;;;;5036148;28;20175;-72
2023/06/07 06:12:24;;;;;;;2.77;2.57;;;;;;;;;;5051970;28;20278;-72
2023/06/07 06:14:49;;;;;;;3.73;2.97;;;;;;;;;;5029258;28;20192;-72
2023/06/07 06:17:15;;;;;;;3.77;2.70;;;;;;;;;;5030458;28;20187;-72
2023/06/07 06:19:41;;;;;;;2.40;2.20;;;;;;;;;;5027402;28;20263;-73
2023/06/07 06:22:06;;;;;;;3.07;2.77;;;;;;;;;;5053293;28;20182;-72
2023/06/07 06:24:32;;;;;;;5.77;3.20;;;;;;;;;;5050249;28;20244;-72
2023/06/07 06:26:57;;;;;;;2.97;2.63;;;;;;;;;;5037972;28;20188;-72
2023/06/07 06:29:23;;;;;;;2.93;2.73;;;;;;;;;;5050170;28;20197;-72
2023/06/07 06:31:48;;;;;;;3.60;3.30;;;;;;;;;;5008993;28;20180;-72
2023/06/07 06:34:13;;;;;;;4.37;2.97;;;;;;;;;;5049691;28;20196;-72
2023/06/07 06:36:38;;;;;;;3.90;3.50;;;;;;;;;;5037138;28;20188;-72
2023/06/07 06:39:04;;;;;;;4.23;3.83;;;;;;;;;;5031044;28;20188;-72
2023/06/07 06:41:30;;;;;;;3.97;3.50;;;;;;;;;;5052805;28;20251;-72
2023/06/07 06:43:55;;;;;;;4.83;4.20;;;;;;;;;;5032606;28;20186;-73
2023/06/07 06:46:20;;;;;;;3.47;3.17;;;;;;;;;;5044010;28;20231;-72
2023/06/07 06:48:45;;;;;;;3.50;3.30;;;;;;;;;;5051859;28;20217;-72
2023/06/07 06:51:11;;;;;;;4.70;4.30;;;;;;;;;;5052649;28;20235;-72
2023/06/07 06:53:36;;;;;;;4.57;4.17;;;;;;;;;;5047547;28;20213;-72
2023/06/07 06:56:06;;;;;;;3.87;3.53;;;;;;;;;;5031257;28;20175;-72
2023/06/07 06:58:34;;;;;;;5.00;3.87;;;;;;;;;;5026657;28;20204;-72
2023/06/07 07:00:59;;;;;;;4.60;4.20;;;;;;;;;;5029923;28;20178;-72
2023/06/07 07:03:25;;;;;;;6.53;4.00;;;;;;;;;;5044661;28;20262;-72
2023/06/07 07:05:50;;;;;;;4.00;3.70;;;;;;;;;;5032313;28;20237;-72
2023/06/07 07:08:15;;;;;;;4.77;3.70;;;;;;;;;;5041253;28;20272;-72
2023/06/07 07:10:40;;;;;;;4.63;3.97;;;;;;;;;;5052160;28;20184;-72
2023/06/07 07:13:06;;;;;;;3.90;3.50;;;;;;;;;;5047133;28;20175;-72
2023/06/07 07:15:31;;;;;;;4.60;4.20;;;;;;;;;;5050313;28;20253;-72
2023/06/07 07:17:56;;;;;;;4.47;4.07;;;;;;;;;;5050651;28;20260;-72
2023/06/07 07:20:22;;;;;;;4.00;3.70;;;;;;;;;;5033537;28;20211;-72
2023/06/07 07:22:47;;;;;;;3.83;3.53;;;;;;;;;;5045693;28;20185;-72
2023/06/07 07:25:13;;;;;;;3.93;3.63;;;;;;;;;;5034911;28;20188;-72
2023/06/07 07:27:38;;;;;;;4.00;3.60;;;;;;;;;;5028421;28;20192;-72
2023/06/07 07:30:04;;;;;;;3.80;3.50;;;;;;;;;;5031695;28;20278;-72
2023/06/07 07:32:30;;;;;;;5.90;3.70;;;;;;;;;;5047047;28;20207;-72
2023/06/07 07:34:55;;;;;;;5.37;3.40;;;;;;;;;;5033578;28;20184;-73
2023/06/07 07:37:20;;;;;;;5.17;3.53;;;;;;;;;;5026516;28;20189;-73
2023/06/07 07:39:45;;;;;;;6.60;3.37;;;;;;;;;;5050335;28;20192;-73
2023/06/07 07:42:10;;;;;;;4.53;3.67;;;;;;;;;;5049376;28;20246;-73
2023/06/07 07:44:37;;;;;;;3.50;3.20;;;;;;;;;;5046079;28;20172;-73
2023/06/07 07:47:02;;;;;;;3.77;3.50;;;;;;;;;;5031603;28;20188;-72
2023/06/07 07:49:27;;;;;;;4.87;3.57;;;;;;;;;;5028545;28;20176;-73
2023/06/07 07:51:52;;;;;;;4.10;3.80;;;;;;;;;;5028909;28;20311;-73
2023/06/07 07:54:18;;;;;;;4.40;3.27;;;;;;;;;;5048919;28;20180;-72
2023/06/07 07:56:43;;;;;;;3.93;3.53;;;;;;;;;;5030657;28;20302;-73
2023/06/07 07:59:09;;;;;;;3.77;3.47;;;;;;;;;;5041009;28;20186;-73
2023/06/07 08:01:34;;;;;;;3.73;3.30;;;;;;;;;;5037120;28;20191;-73
2023/06/07 08:03:59;;;;;;;5.63;3.70;;;;;;;;;;5030908;28;20250;-73
2023/06/07 08:06:25;;;;;;;5.90;3.57;;;;;;;;;;5059438;28;20178;-73
2023/06/07 08:08:51;;;;;;;4.03;3.40;;;;;;;;;;5054581;28;20236;-73
2023/06/07 08:11:16;;;;;;;4.60;3.80;;;;;;;;;;5047780;28;20178;-73
2023/06/07 08:13:42;;;;;;;4.20;3.90;;;;;;;;;;5070417;28;20271;-73
2023/06/07 08:16:07;;;;;;;3.80;3.50;;;;;;;;;;5072235;28;20177;-73
2023/06/07 08:18:32;;;;;;;9.47;3.80;;;;;;;;;;5052212;28;20173;-73
2023/06/07 08:20:57;;;;;;;4.90;3.97;;;;;;;;;;5055100;28;20178;-73
2023/06/07 08:23:22;;;;;;;3.77;3.47;;;;;;;;;;5071769;28;20188;-73
2023/06/07 08:25:48;;;;;;;4.47;3.10;;;;;;;;;;5071531;28;20175;-73
2023/06/07 08:28:14;;;;;;;3.97;3.60;;;;;;;;;;5053297;28;20223;-73
2023/06/07 08:30:40;;;;;;;3.70;3.07;;;;;;;;;;5049038;28;20174;-73
2023/06/07 08:33:05;;;;;;;3.80;3.50;;;;;;;;;;5052764;28;20210;-73
2023/06/07 08:35:31;;;;;;;3.97;3.60;;;;;;;;;;5052899;28;20241;-73
2023/06/07 08:37:56;;;;;;;7.47;3.97;;;;;;;;;;5062252;28;20307;-73
2023/06/07 08:40:21;;;;;;;3.90;3.60;;;;;;;;;;5068208;28;20178;-73
2023/06/07 08:42:47;;;;;;;4.30;3.97;;;;;;;;;;5054371;28;20192;-73
2023/06/07 08:45:13;;;;;;;4.13;3.43;;;;;;;;;;5064578;28;20209;-73
2023/06/07 08:47:40;;;;;;;3.63;3.10;;;;;;;;;;5067890;28;20212;-73
2023/06/07 08:50:09;;;;;;;3.20;2.90;;;;;;;;;;5054449;28;20253;-73
2023/06/07 08:52:38;;;;;;;3.30;3.10;;;;;;;;;;5074998;28;20225;-73
2023/06/07 08:55:03;;;;;;;3.10;2.90;;;;;;;;;;5049752;28;20211;-73
2023/06/07 08:57:30;;;;;;;3.53;3.23;;;;;;;;;;5051393;28;20227;-73
2023/06/07 08:59:56;;;;;;;3.10;2.90;;;;;;;;;;5078217;28;20184;-73
2023/06/07 09:02:23;;;;;;;3.90;3.10;;;;;;;;;;5056412;28;20180;-73
2023/06/07 09:04:48;;;;;;;6.23;3.67;;;;;;;;;;5056480;28;20231;-73
2023/06/07 09:07:14;;;;;;;4.20;3.23;;;;;;;;;;5048389;28;20244;-73
2023/06/07 09:09:40;;;;;;;3.47;3.10;;;;;;;;;;5050153;28;20191;-73
2023/06/07 09:12:06;;;;;;;4.43;3.40;;;;;;;;;;5056208;28;20184;-73
2023/06/07 09:14:32;;;;;;;4.00;2.90;;;;;;;;;;5075551;28;20180;-73
2023/06/07 09:16:58;;;;;;;3.00;2.80;;;;;;;;;;5060305;28;20212;-73
2023/06/07 09:19:30;;;;;;;2.80;2.60;;;;;;;;;;5079832;28;20180;-73
2023/06/07 09:21:56;;;;;;;2.90;2.70;;;;;;;;;;5060059;28;20165;-73
2023/06/07 09:24:25;;;;;;;2.73;2.53;;;;;;;;;;5062619;28;20175;-73
2023/06/07 09:26:50;;;;;;;3.00;2.70;;;;;;;;;;5069089;28;20181;-73
2023/06/07 09:29:15;;;;;;;2.23;2.13;;;;;;;;;;5081877;28;20189;-73
2023/06/07 09:31:41;;;;;;;2.70;2.50;;;;;;;;;;5077032;28;20216;-73
2023/06/07 09:34:20;;;;;;;3.50;2.70;;;;;;;;;;5072148;28;20718;-73
2023/06/07 09:36:52;;;;;;;2.47;2.27;;;;;;;;;;5075149;28;20183;-73
2023/06/07 09:39:25;;;;;;;2.97;2.27;;;;;;;;;;5056825;28;20210;-73
2023/06/07 09:41:51;;;;;;;4.03;2.30;;;;;;;;;;5075705;28;20187;-73
2023/06/07 09:44:26;;;;;;;2.63;2.43;;;;;;;;;;5073651;28;20184;-73
2023/06/07 09:46:55;;;;;;;7.33;2.50;;;;;;;;;;5081937;28;20203;-73
2023/06/07 09:49:34;;;;;;;3.73;3.40;;;;;;;;;;5052650;28;20204;-73
2023/06/07 09:52:01;;;;;;;3.50;2.70;;;;;;;;;;5055299;28;20227;-73
2023/06/07 09:54:36;;;;;;;2.80;2.60;;;;;;;;;;5067470;28;20184;-73
2023/06/07 09:57:03;;;;;;;2.55;2.33;;;;;;;;;;5062936;28;20283;-73
2023/06/07 09:59:28;;;;;;;2.70;2.33;;;;;;;;;;5074477;28;20182;-73
2023/06/07 10:01:53;;;;;;;4.47;2.50;;;;;;;;;;5044382;28;20174;-73
2023/06/07 10:04:19;;;;;;;2.87;2.53;;;;;;;;;;5056554;28;20233;-73
2023/06/07 10:06:45;;;;;;;2.67;2.42;;;;;;;;;;5067228;28;20181;-73
2023/06/07 10:09:11;;;;;;;2.30;2.20;;;;;;;;;;5071855;28;20209;-73
2023/06/07 10:11:37;;;;;;;2.60;2.40;;;;;;;;;;5069200;28;20184;-73
2023/06/07 10:14:14;;;;;;;2.97;2.77;;;;;;;;;;5068553;28;20170;-73
2023/06/07 10:17:00;;;;;;;3.28;2.30;;;;;;;;;;5065576;28;20211;-73
2023/06/07 10:19:28;;;;;;;2.70;2.50;;;;;;;;;;5051370;28;20182;-73
2023/06/07 10:21:55;;;;;;;2.30;2.10;;;;;;;;;;5067298;28;20222;-73
2023/06/07 10:24:24;;;;;;;2.70;2.50;;;;;;;;;;5050146;28;20204;-73
2023/06/07 10:26:49;;;;;;;2.20;2.10;;;;;;;;;;5054645;28;20231;-73
2023/06/07 10:29:17;;;;;;;2.50;2.30;;;;;;;;;;5053825;28;20198;-73
2023/06/07 10:31:47;;;;;;;2.60;2.40;;;;;;;;;;5053865;28;20201;-73
2023/06/07 10:34:13;;;;;;;2.53;2.33;;;;;;;;;;5052297;28;20167;-73
2023/06/07 10:36:38;;;;;;;4.15;2.55;;;;;;;;;;5070929;28;20247;-73
2023/06/07 10:39:07;;;;;;;2.00;1.90;;;;;;;;;;5071175;28;20177;-73
2023/06/07 10:41:34;;;;;;;2.60;2.40;;;;;;;;;;5052714;28;20208;-73
2023/06/07 10:44:01;;;;;;;1.90;1.80;;;;;;;;;;5075231;28;20203;-73
2023/06/07 10:46:27;;;;;;;2.33;2.20;;;;;;;;;;5050851;28;20187;-73
2023/06/07 10:48:53;;;;;;;2.40;2.20;;;;;;;;;;5082858;28;20193;-73
2023/06/07 10:51:38;;;;;;;3.15;2.20;;;;;;;;;;5054310;28;20189;-73
2023/06/07 10:54:03;;;;;;;5.15;2.95;;;;;;;;;;5061302;28;20181;-74
2023/06/07 10:56:30;;;;;;;2.40;2.20;;;;;;;;;;5067135;28;20181;-73
2023/06/07 10:58:56;;;;;;;2.55;2.35;;;;;;;;;;5066615;28;20268;-73
2023/06/07 11:01:22;;;;;;;2.50;2.30;;;;;;;;;;5077964;28;20182;-73
2023/06/07 11:03:48;;;;;;;2.50;2.30;;;;;;;;;;5072026;28;20226;-73
2023/06/07 11:06:14;;;;;;;2.72;2.53;;;;;;;;;;5048845;28;20204;-73
2023/06/07 11:08:40;;;;;;;2.40;2.20;;;;;;;;;;5051880;28;20202;-73
2023/06/07 11:11:26;;;;;;;2.75;2.30;;;;;;;;;;5048159;28;20200;-74
2023/06/07 11:13:54;;;;;;;2.47;2.30;;;;;;;;;;5061972;28;20181;-74
2023/06/07 11:16:33;;;;;;;3.17;2.88;;;;;;;;;;5066565;28;20185;-74
2023/06/07 11:19:07;;;;;;;3.50;2.35;;;;;;;;;;5044059;28;20267;-73
2023/06/07 11:21:53;;;;;;;2.65;2.45;;;;;;;;;;5066242;28;20207;-74
2023/06/07 11:24:18;;;;;;;3.10;2.10;;;;;;;;;;5061104;28;20188;-74
2023/06/07 11:26:45;;;;;;;2.90;2.70;;;;;;;;;;5072668;28;20181;-74
2023/06/07 11:29:11;;;;;;;4.82;2.50;;;;;;;;;;5052101;28;20213;-74
2023/06/07 11:31:36;;;;;;;3.92;2.33;;;;;;;;;;5044939;28;20185;-74
2023/06/07 11:34:01;;;;;;;14.25;3.30;;;;;;;;;;5055661;28;20204;-74
2023/06/07 11:36:31;;;;;;;2.67;2.47;;;;;;;;;;5053021;28;20226;-74
2023/06/07 11:38:59;;;;;;;2.65;2.45;;;;;;;;;;5053514;28;20170;-74
2023/06/07 11:41:24;;;;;;;2.45;2.25;;;;;;;;;;5069782;28;20269;-74
2023/06/07 11:43:49;;;;;;;2.40;2.30;;;;;;;;;;5053197;28;20200;-74
2023/06/07 11:46:16;;;;;;;3.00;2.53;;;;;;;;;;5047014;28;20177;-74
2023/06/07 11:48:41;;;;;;;2.85;2.30;;;;;;;;;;5057831;28;20232;-74
2023/06/07 11:51:06;;;;;;;3.70;2.75;;;;;;;;;;5053574;28;20243;-74
2023/06/07 11:53:32;;;;;;;2.70;2.50;;;;;;;;;;5069870;28;20259;-74
2023/06/07 11:55:58;;;;;;;2.92;2.72;;;;;;;;;;5065956;28;20178;-74
2023/06/07 11:58:23;;;;;;;3.95;2.40;;;;;;;;;;5076978;28;20207;-74
2023/06/07 12:00:49;;;;;;;2.95;2.75;;;;;;;;;;5066167;28;20185;-74
2023/06/07 12:03:16;;;;;;;3.00;2.80;;;;;;;;;;5075721;28;20173;-74
2023/06/07 12:05:41;;;;;;;14.27;3.53;;;;;;;;;;5050147;28;20225;-74
2023/06/07 12:08:09;;;;;;;2.88;2.67;;;;;;;;;;5047967;28;20289;-74
2023/06/07 12:10:38;;;;;;;4.05;3.00;;;;;;;;;;5033586;28;20176;-74
2023/06/07 12:13:05;;;;;;;2.92;2.67;;;;;;;;;;5028048;28;20256;-74
2023/06/07 12:15:32;;;;;;;2.88;2.67;;;;;;;;;;5057685;28;20198;-74
2023/06/07 12:17:58;;;;;;;3.03;2.83;;;;;;;;;;5048089;28;20539;-74
2023/06/07 12:20:23;;;;;;;13.20;3.40;;;;;;;;;;5048084;28;20249;-74
2023/06/07 12:22:48;;;;;;;3.13;2.50;;;;;;;;;;5053180;28;20182;-74
2023/06/07 12:25:18;;;;;;;3.15;2.85;;;;;;;;;;5048402;28;20182;-74
2023/06/07 12:27:46;;;;;;;2.75;2.55;;;;;;;;;;5035700;28;20202;-74
2023/06/07 12:30:11;;;;;;;3.05;2.85;;;;;;;;;;5056585;28;20178;-74
2023/06/07 12:32:37;;;;;;;2.90;2.70;;;;;;;;;;5053418;28;20196;-74
2023/06/07 12:35:05;;;;;;;3.15;2.85;;;;;;;;;;5047451;28;20178;-74
2023/06/07 12:37:40;;;;;;;2.95;2.75;;;;;;;;;;5053955;28;20203;-74
2023/06/07 12:40:06;;;;;;;3.03;2.80;;;;;;;;;;5033549;28;20181;-74
2023/06/07 12:42:32;;;;;;;2.78;2.58;;;;;;;;;;5038095;28;20173;-74
2023/06/07 12:44:57;;;;;;;4.93;3.15;;;;;;;;;;5051529;28;20186;-74
2023/06/07 12:47:22;;;;;;;2.70;2.50;;;;;;;;;;5049778;28;20205;-74
2023/06/07 12:49:48;;;;;;;3.58;2.90;;;;;;;;;;5034639;28;20182;-74
2023/06/07 12:52:13;;;;;;;3.05;2.80;;;;;;;;;;5036339;28;20217;-74
2023/06/07 12:54:38;;;;;;;4.22;3.03;;;;;;;;;;5035541;28;20232;-75
2023/06/07 12:57:03;;;;;;;4.57;3.20;;;;;;;;;;5039827;28;20194;-74
2023/06/07 12:59:29;;;;;;;3.13;2.83;;;;;;;;;;5050771;28;20183;-74
2023/06/07 13:01:54;;;;;;;3.33;2.97;;;;;;;;;;5050375;28;20232;-75
2023/06/07 13:04:19;;;;;;;3.13;2.92;;;;;;;;;;5034309;28;20218;-75
2023/06/07 13:06:45;;;;;;;6.90;3.08;;;;;;;;;;5062384;28;20269;-74
2023/06/07 13:09:11;;;;;;;3.10;2.90;;;;;;;;;;5051685;28;20205;-75
2023/06/07 13:11:37;;;;;;;2.95;2.75;;;;;;;;;;5045437;28;20178;-75
2023/06/07 13:14:02;;;;;;;3.42;3.13;;;;;;;;;;5048983;28;20248;-75
2023/06/07 13:16:28;;;;;;;4.00;3.70;;;;;;;;;;5049818;28;20319;-75
2023/06/07 13:18:54;;;;;;;3.15;2.92;;;;;;;;;;5069091;28;20184;-74
2023/06/07 13:21:19;;;;;;;3.70;3.40;;;;;;;;;;5067770;28;20186;-75
2023/06/07 13:23:44;;;;;;;2.97;2.67;;;;;;;;;;5061849;28;20251;-75
2023/06/07 13:26:09;;;;;;;3.38;3.13;;;;;;;;;;5069100;28;20182;-74
2023/06/07 13:28:35;;;;;;;3.83;3.50;;;;;;;;;;5046522;28;20201;-74
2023/06/07 13:31:00;;;;;;;6.97;3.10;;;;;;;;;;5064108;28;20196;-74
2023/06/07 13:33:25;;;;;;;3.63;3.30;;;;;;;;;;5060893;28;20173;-74
2023/06/07 13:35:51;;;;;;;4.40;2.85;;;;;;;;;;5061977;28;20220;-74
2023/06/07 13:38:16;;;;;;;2.90;2.70;;;;;;;;;;5063203;28;20185;-74
2023/06/07 13:40:41;;;;;;;3.63;3.08;;;;;;;;;;5045952;28;20261;-74
2023/06/07 13:43:06;;;;;;;3.50;3.15;;;;;;;;;;5061772;28;20200;-74
2023/06/07 13:45:32;;;;;;;3.47;3.05;;;;;;;;;;5061332;28;20180;-74
2023/06/07 13:47:57;;;;;;;4.78;3.00;;;;;;;;;;5049533;28;20190;-74
2023/06/07 13:50:22;;;;;;;3.50;3.20;;;;;;;;;;5059374;28;20178;-74
2023/06/07 13:52:50;;;;;;;3.35;3.15;;;;;;;;;;5045716;28;20186;-74
2023/06/07 13:55:16;;;;;;;3.97;3.00;;;;;;;;;;5041112;28;20178;-75
2023/06/07 13:57:41;;;;;;;3.30;2.97;;;;;;;;;;5049565;28;20201;-74
2023/06/07 14:00:07;;;;;;;2.92;2.70;;;;;;;;;;5060902;28;20177;-74
2023/06/07 14:02:32;;;;;;;5.78;3.08;;;;;;;;;;5043026;28;20209;-75
2023/06/07 14:04:57;;;;;;;3.22;2.80;;;;;;;;;;5046827;28;20290;-74
2023/06/07 14:07:22;;;;;;;3.40;3.10;;;;;;;;;;5054755;28;20196;-74
2023/06/07 14:09:48;;;;;;;3.13;2.83;;;;;;;;;;5057246;28;20209;-74
2023/06/07 14:12:13;;;;;;;3.25;3.05;;;;;;;;;;5068943;28;20186;-74
2023/06/07 14:14:39;;;;;;;2.85;2.65;;;;;;;;;;5048839;28;20165;-74
2023/06/07 14:17:04;;;;;;;2.70;2.50;;;;;;;;;;5072622;28;20188;-74
2023/06/07 14:19:29;;;;;;;2.90;2.60;;;;;;;;;;5071533;28;20180;-74
2023/06/07 14:21:54;;;;;;;3.33;3.03;;;;;;;;;;5072788;28;20169;-74
2023/06/07 14:24:20;;;;;;;5.03;3.00;;;;;;;;;;5074022;28;20253;-74
2023/06/07 14:26:46;;;;;;;2.58;2.47;;;;;;;;;;5059099;28;20339;-74
2023/06/07 14:29:11;;;;;;;3.08;2.88;;;;;;;;;;5057731;28;20201;-74
2023/06/07 14:31:37;;;;;;;3.47;2.78;;;;;;;;;;5047890;28;20181;-74
2023/06/07 14:34:02;;;;;;;3.10;2.90;;;;;;;;;;5064492;28;20177;-74
2023/06/07 14:36:27;;;;;;;2.55;2.45;;;;;;;;;;5065123;28;20177;-74
2023/06/07 14:38:52;;;;;;;4.32;2.90;;;;;;;;;;5065350;28;20196;-74